Time;durP1;ratioP1;P1;durP2;ratioP2;P2;SDS_P1;SDS_P2;PMS_P1;PMS_P2;Temp;Humidity;BMP_temperature;BMP_pressure;BME280_temperature;BME280_humidity;BME280_pressure;Samples;Min_cycle;Max_cycle;Signal;HPM_P1;HPM_P2
2023/10/24 00:02:28;;;;;;;;;;;;;;;21.15;47.15;94864.53;10470667;28;2718;-59
2023/10/24 00:07:28;;;;;;;;;;;;;;;21.14;47.43;94860.34;10479181;28;2627;-59
2023/10/24 00:12:29;;;;;;;;;;;;;;;21.13;47.46;94851.66;10475509;28;2552;-58
2023/10/24 00:17:29;;;;;;;;;;;;;;;21.13;47.25;94850.88;10472995;28;2599;-59
2023/10/24 00:22:29;;;;;;;;;;;;;;;21.12;47.33;94858.03;10477629;28;2816;-59
2023/10/24 00:27:29;;;;;;;;;;;;;;;21.11;47.24;94879.38;10472398;28;2561;-59
2023/10/24 00:32:30;;;;;;;;;;;;;;;21.11;47.48;94892.56;10474359;28;2578;-59
2023/10/24 00:37:30;;;;;;;;;;;;;;;21.09;47.26;94890.22;10472889;28;2587;-59
2023/10/24 00:42:30;;;;;;;;;;;;;;;21.06;47.46;94899.50;10471987;28;4724;-59
2023/10/24 00:47:30;;;;;;;;;;;;;;;21.05;47.36;94892.69;10468810;28;2614;-59
2023/10/24 00:52:31;;;;;;;;;;;;;;;21.05;47.14;94902.44;10457213;28;2564;-59
2023/10/24 00:57:31;;;;;;;;;;;;;;;21.04;47.35;94906.16;10479168;28;2724;-59
2023/10/24 01:02:31;;;;;;;;;;;;;;;21.01;47.83;94928.56;10472556;28;2672;-59
2023/10/24 01:07:32;;;;;;;;;;;;;;;21.01;47.29;94896.16;10474145;28;2643;-59
2023/10/24 01:12:32;;;;;;;;;;;;;;;21.00;47.52;94908.56;10472738;28;2555;-59
2023/10/24 01:17:32;;;;;;;;;;;;;;;20.97;47.27;94903.91;10475033;28;2664;-59
2023/10/24 01:22:32;;;;;;;;;;;;;;;20.96;47.69;94918.13;10471667;28;2603;-59
2023/10/24 01:27:32;;;;;;;;;;;;;;;20.94;47.47;94909.75;10471212;28;2584;-59
2023/10/24 01:32:33;;;;;;;;;;;;;;;20.94;47.32;94904.47;10476259;28;2557;-59
2023/10/24 01:37:33;;;;;;;;;;;;;;;20.92;47.76;94892.66;10479070;28;2591;-60
2023/10/24 01:42:33;;;;;;;;;;;;;;;20.92;47.59;94882.91;10475315;28;4681;-59
2023/10/24 01:47:34;;;;;;;;;;;;;;;20.90;47.73;94892.97;10472370;28;2594;-59
2023/10/24 01:52:34;;;;;;;;;;;;;;;20.91;47.45;94899.03;10472445;28;2547;-59
2023/10/24 01:57:35;;;;;;;;;;;;;;;20.89;47.32;94894.06;10474758;28;2570;-60
2023/10/24 02:02:35;;;;;;;;;;;;;;;20.88;47.48;94892.47;10473595;28;2673;-60
2023/10/24 02:07:35;;;;;;;;;;;;;;;20.88;47.31;94904.88;10472292;28;2550;-59
2023/10/24 02:12:36;;;;;;;;;;;;;;;20.85;47.65;94908.09;10481388;28;2908;-59
2023/10/24 02:17:36;;;;;;;;;;;;;;;20.85;47.24;94903.63;10478491;28;2646;-59
2023/10/24 02:22:36;;;;;;;;;;;;;;;20.83;47.40;94911.03;10481778;28;2618;-59
2023/10/24 02:27:38;;;;;;;;;;;;;;;20.81;47.30;94880.78;10471439;28;2598;-60
2023/10/24 02:32:38;;;;;;;;;;;;;;;20.80;47.34;94869.47;10477929;28;2609;-59
2023/10/24 02:37:39;;;;;;;;;;;;;;;20.79;47.36;94883.69;10474609;28;2699;-60
2023/10/24 02:42:39;;;;;;;;;;;;;;;20.79;47.62;94860.00;10476720;28;4664;-59
2023/10/24 02:47:39;;;;;;;;;;;;;;;20.78;47.25;94858.47;10473026;28;2590;-59
2023/10/24 02:52:39;;;;;;;;;;;;;;;20.77;47.48;94859.50;10477273;28;2703;-59
2023/10/24 02:57:40;;;;;;;;;;;;;;;20.76;46.98;94868.50;10479766;28;2552;-60
2023/10/24 03:02:40;;;;;;;;;;;;;;;20.74;47.26;94857.50;10475764;28;2627;-59
2023/10/24 03:07:40;;;;;;;;;;;;;;;20.74;47.13;94849.59;10478969;28;2662;-59
2023/10/24 03:12:41;;;;;;;;;;;;;;;20.73;47.11;94842.00;10480534;28;2578;-59
2023/10/24 03:17:41;;;;;;;;;;;;;;;20.72;47.38;94850.94;10481100;28;2563;-60
2023/10/24 03:22:41;;;;;;;;;;;;;;;20.72;47.04;94861.50;10477577;28;2660;-60
2023/10/24 03:27:42;;;;;;;;;;;;;;;20.71;46.99;94849.41;10478531;28;2989;-60
2023/10/24 03:32:42;;;;;;;;;;;;;;;20.69;47.01;94827.84;10470311;28;2618;-60
2023/10/24 03:37:42;;;;;;;;;;;;;;;20.67;46.95;94814.97;10468210;28;2631;-59
2023/10/24 03:42:42;;;;;;;;;;;;;;;20.64;47.19;94805.03;10459138;28;4719;-59
2023/10/24 03:47:43;;;;;;;;;;;;;;;20.65;47.24;94803.94;10461683;28;2578;-59
2023/10/24 03:52:43;;;;;;;;;;;;;;;20.65;47.17;94816.34;10478848;28;2761;-59
2023/10/24 03:57:43;;;;;;;;;;;;;;;20.64;46.85;94807.66;10478446;28;2618;-60
2023/10/24 04:02:46;;;;;;;;;;;;;;;20.62;46.84;94807.19;10466249;28;2570;-60
2023/10/24 04:07:46;;;;;;;;;;;;;;;20.62;47.06;94799.28;10462419;28;2626;-59
2023/10/24 04:12:46;;;;;;;;;;;;;;;20.65;47.06;94780.25;10473316;28;2638;-59
2023/10/24 04:17:46;;;;;;;;;;;;;;;20.71;46.86;94771.16;10476562;28;2596;-59
2023/10/24 04:22:47;;;;;;;;;;;;;;;20.77;46.54;94774.47;10472113;28;2694;-59
2023/10/24 04:27:47;;;;;;;;;;;;;;;20.81;46.28;94764.91;10471501;28;2584;-59
2023/10/24 04:32:47;;;;;;;;;;;;;;;20.86;46.16;94765.56;10476780;28;2673;-59
2023/10/24 04:37:47;;;;;;;;;;;;;;;20.90;45.85;94748.06;10476862;28;2594;-59
2023/10/24 04:42:49;;;;;;;;;;;;;;;20.95;45.98;94737.44;10479656;28;2723;-59
2023/10/24 04:47:49;;;;;;;;;;;;;;;20.98;46.17;94747.34;10471292;28;2603;-59
2023/10/24 04:52:50;;;;;;;;;;;;;;;21.03;45.72;94739.38;10473299;28;2641;-59
2023/10/24 04:57:50;;;;;;;;;;;;;;;21.07;45.54;94731.63;10471252;28;2687;-59
2023/10/24 05:02:51;;;;;;;;;;;;;;;21.11;45.73;94729.19;10471305;28;2597;-59
2023/10/24 05:07:51;;;;;;;;;;;;;;;21.14;45.31;94729.38;10451410;28;2592;-59
2023/10/24 05:12:51;;;;;;;;;;;;;;;21.19;45.15;94725.81;10479922;28;2643;-58
2023/10/24 05:17:52;;;;;;;;;;;;;;;21.20;45.22;94719.47;10456865;28;2625;-59
2023/10/24 05:22:52;;;;;;;;;;;;;;;21.23;45.27;94724.91;10474562;28;2606;-59
2023/10/24 05:27:52;;;;;;;;;;;;;;;21.24;45.35;94737.03;10459231;28;2619;-58
2023/10/24 05:32:52;;;;;;;;;;;;;;;21.29;45.00;94755.34;10472476;28;2625;-59
2023/10/24 05:37:55;;;;;;;;;;;;;;;21.29;45.07;94750.06;10479418;28;2580;-59
2023/10/24 05:42:56;;;;;;;;;;;;;;;21.33;45.02;94750.25;10484730;28;4816;-58
2023/10/24 05:47:56;;;;;;;;;;;;;;;21.34;44.87;94744.69;10484241;28;2746;-59
2023/10/24 05:52:56;;;;;;;;;;;;;;;21.37;44.81;94730.13;10485248;28;2613;-59
2023/10/24 05:57:56;;;;;;;;;;;;;;;21.39;44.70;94718.16;10485983;28;2576;-58
2023/10/24 06:02:57;;;;;;;;;;;;;;;21.42;44.63;94727.34;10485529;28;2595;-59
2023/10/24 06:07:58;;;;;;;;;;;;;;;21.45;44.44;94711.69;10484751;28;2623;-59
2023/10/24 06:12:58;;;;;;;;;;;;;;;21.49;44.09;94699.47;10470973;28;2692;-59
2023/10/24 06:17:58;;;;;;;;;;;;;;;21.53;43.97;94670.63;10486307;28;2784;-59
2023/10/24 06:22:59;;;;;;;;;;;;;;;21.51;43.80;94670.16;10467206;28;2721;-59
2023/10/24 06:27:59;;;;;;;;;;;;;;;21.54;44.40;94669.53;10478349;28;2594;-60
2023/10/24 06:32:59;;;;;;;;;;;;;;;21.56;44.24;94664.72;10480020;28;2587;-59
2023/10/24 06:38:00;;;;;;;;;;;;;;;21.56;44.28;94638.38;10474633;28;2647;-59
2023/10/24 06:43:02;;;;;;;;;;;;;;;21.54;44.61;94645.81;10483349;28;4719;-58
2023/10/24 06:48:02;;;;;;;;;;;;;;;21.56;44.60;94648.91;10474388;28;2622;-59
2023/10/24 06:53:03;;;;;;;;;;;;;;;21.58;44.68;94644.09;10481391;28;2651;-59
2023/10/24 06:58:04;;;;;;;;;;;;;;;21.63;44.79;94643.97;10479754;28;2587;-59
2023/10/24 07:03:04;;;;;;;;;;;;;;;21.64;44.33;94642.88;10477096;28;2590;-59
2023/10/24 07:08:04;;;;;;;;;;;;;;;21.63;44.41;94665.09;10478421;28;2580;-59
2023/10/24 07:13:04;;;;;;;;;;;;;;;21.62;44.81;94659.03;10478889;28;2589;-59
2023/10/24 07:18:05;;;;;;;;;;;;;;;21.61;44.44;94640.88;10474146;28;2604;-60
2023/10/24 07:23:05;;;;;;;;;;;;;;;21.59;44.83;94628.00;10475866;28;2639;-59
2023/10/24 07:28:05;;;;;;;;;;;;;;;21.59;44.75;94630.63;10477230;28;2638;-59
2023/10/24 07:33:06;;;;;;;;;;;;;;;21.59;44.75;94629.84;10481425;28;2623;-59
2023/10/24 07:38:06;;;;;;;;;;;;;;;21.57;45.02;94635.44;10473744;28;2709;-60
2023/10/24 07:43:07;;;;;;;;;;;;;;;21.58;45.06;94630.94;10459677;28;4817;-58
2023/10/24 07:48:07;;;;;;;;;;;;;;;21.58;45.12;94630.94;10474274;28;2662;-59
2023/10/24 07:53:08;;;;;;;;;;;;;;;21.56;45.15;94614.63;10471112;28;2672;-59
2023/10/24 07:58:08;;;;;;;;;;;;;;;21.55;45.27;94624.44;10479648;28;2640;-59
2023/10/24 08:03:09;;;;;;;;;;;;;;;21.52;45.39;94621.59;10454802;28;2599;-59
2023/10/24 08:08:09;;;;;;;;;;;;;;;21.50;45.47;94607.94;10478844;28;2607;-59
2023/10/24 08:13:10;;;;;;;;;;;;;;;21.50;45.70;94602.69;10469662;28;2614;-59
2023/10/24 08:18:10;;;;;;;;;;;;;;;21.51;45.49;94609.50;10472125;28;2554;-59
2023/10/24 08:23:11;;;;;;;;;;;;;;;21.48;45.77;94618.03;10469554;28;2628;-59
2023/10/24 08:28:11;;;;;;;;;;;;;;;21.47;45.76;94616.50;10490942;28;2602;-60
2023/10/24 08:33:11;;;;;;;;;;;;;;;21.43;46.04;94605.00;10479126;28;2558;-58
2023/10/24 08:38:12;;;;;;;;;;;;;;;21.43;46.17;94591.81;10464148;28;1918;-58
2023/10/24 08:43:12;;;;;;;;;;;;;;;21.26;44.48;94568.03;10473024;28;4689;-55
2023/10/24 08:48:12;;;;;;;;;;;;;;;21.13;44.56;94576.81;10456678;28;2005;-57
2023/10/24 08:53:15;;;;;;;;;;;;;;;21.17;45.35;94580.41;10456201;28;2521;-57
2023/10/24 08:58:16;;;;;;;;;;;;;;;21.17;45.92;94589.09;10491586;28;1604;-57
2023/10/24 09:03:16;;;;;;;;;;;;;;;21.20;46.09;94600.88;10491818;28;1635;-57
2023/10/24 09:08:17;;;;;;;;;;;;;;;21.23;46.39;94600.25;10478552;28;2598;-57
2023/10/24 09:13:17;;;;;;;;;;;;;;;21.23;46.27;94585.22;10480836;28;1975;-57
2023/10/24 09:18:17;;;;;;;;;;;;;;;21.24;46.26;94578.09;10475617;28;2353;-57
2023/10/24 09:23:18;;;;;;;;;;;;;;;21.25;46.13;94563.84;10476252;28;1814;-56
2023/10/24 09:28:18;;;;;;;;;;;;;;;21.25;45.94;94543.53;10455912;28;1564;-56
2023/10/24 09:33:19;;;;;;;;;;;;;;;21.25;46.18;94538.25;10471941;28;1965;-58
2023/10/24 09:38:19;;;;;;;;;;;;;;;21.24;45.72;94526.19;10479141;28;2517;-57
2023/10/24 09:43:21;;;;;;;;;;;;;;;21.24;45.91;94518.28;10479571;28;4650;-57
2023/10/24 09:48:22;;;;;;;;;;;;;;;21.23;45.77;94521.19;10475167;28;1750;-58
2023/10/24 09:53:23;;;;;;;;;;;;;;;21.24;46.05;94513.00;10457525;28;2035;-57
2023/10/24 09:58:23;;;;;;;;;;;;;;;21.20;46.48;94503.38;10470765;28;1527;-57
2023/10/24 10:03:23;;;;;;;;;;;;;;;21.21;46.14;94499.66;10457629;28;1642;-57
2023/10/24 10:08:23;;;;;;;;;;;;;;;21.21;46.08;94495.16;10478543;28;1731;-57
2023/10/24 10:13:27;;;;;;;;;;;;;;;21.19;45.84;94488.63;10463131;28;2328;-57
2023/10/24 10:18:46;;;;;;;;;;;;;;;21.20;46.13;94474.38;10460529;28;1828;-57
2023/10/24 10:24:06;;;;;;;;;;;;;;;21.19;46.06;94472.81;10470611;28;2229;-56
2023/10/24 10:29:17;;;;;;;;;;;;;;;21.16;46.09;94455.78;10460318;28;2081;-56
2023/10/24 10:34:18;;;;;;;;;;;;;;;21.17;46.70;94446.00;10481154;28;1470;-58
2023/10/24 10:39:18;;;;;;;;;;;;;;;21.16;47.11;94434.72;10482736;28;1834;-56
2023/10/24 10:44:37;;;;;;;;;;;;;;;21.15;47.26;94437.63;10483272;28;4752;-56
2023/10/24 10:49:44;;;;;;;;;;;;;;;21.16;47.20;94433.94;10483027;28;1975;-58
2023/10/24 10:54:48;;;;;;;;;;;;;;;21.17;47.03;94424.91;10466470;28;1875;-58
2023/10/24 10:59:57;;;;;;;;;;;;;;;21.17;47.58;94423.06;10463951;28;1891;-57
2023/10/24 11:04:58;;;;;;;;;;;;;;;21.17;47.35;94425.69;10481178;28;2606;-58
2023/10/24 11:09:58;;;;;;;;;;;;;;;21.17;47.88;94424.91;10486258;28;2530;-59
2023/10/24 11:15:13;;;;;;;;;;;;;;;21.15;47.73;94416.56;10465296;28;1472;-59
2023/10/24 11:20:13;;;;;;;;;;;;;;;21.16;47.83;94439.19;10476977;28;1587;-57
2023/10/24 11:25:13;;;;;;;;;;;;;;;21.16;47.59;94453.16;10480030;28;1828;-56
2023/10/24 11:30:14;;;;;;;;;;;;;;;21.15;47.86;94459.50;10482646;28;1969;-58
2023/10/24 11:35:14;;;;;;;;;;;;;;;21.14;47.46;94447.41;10467548;28;1544;-58
2023/10/24 11:40:15;;;;;;;;;;;;;;;21.15;47.41;94462.13;10462557;28;4705;-58
2023/10/24 11:45:15;;;;;;;;;;;;;;;21.13;47.53;94455.59;10479426;28;2621;-58
2023/10/24 11:50:15;;;;;;;;;;;;;;;21.13;47.33;94468.78;10485808;28;2219;-57
2023/10/24 11:55:15;;;;;;;;;;;;;;;21.11;47.33;94469.09;10479743;28;2674;-56
2023/10/24 12:00:16;;;;;;;;;;;;;;;21.08;47.14;94463.66;10475710;28;1575;-57
2023/10/24 12:05:16;;;;;;;;;;;;;;;21.06;47.71;94441.03;10478585;28;1654;-57
2023/10/24 12:10:16;;;;;;;;;;;;;;;21.05;47.03;94428.97;10482992;28;2563;-56
2023/10/24 12:15:16;;;;;;;;;;;;;;;21.02;47.72;94429.56;10480565;28;2563;-56
2023/10/24 12:20:17;;;;;;;;;;;;;;;21.04;47.81;94427.38;10476713;28;1844;-57
2023/10/24 12:25:17;;;;;;;;;;;;;;;21.04;47.78;94416.09;10483105;28;2548;-55
2023/10/24 12:30:19;;;;;;;;;;;;;;;21.03;47.58;94404.78;10480245;28;1914;-55
2023/10/24 12:35:20;;;;;;;;;;;;;;;21.03;47.97;94402.13;10478014;28;2703;-57
2023/10/24 12:40:20;;;;;;;;;;;;;;;21.03;47.77;94399.50;10480556;28;4838;-57
2023/10/24 12:45:21;;;;;;;;;;;;;;;21.03;48.17;94386.34;10474666;28;1662;-55
2023/10/24 12:50:22;;;;;;;;;;;;;;;21.03;47.81;94399.50;10476835;28;1967;-56
2023/10/24 12:55:22;;;;;;;;;;;;;;;21.02;47.94;94419.00;10491882;28;1607;-55
2023/10/24 13:00:23;;;;;;;;;;;;;;;21.01;48.10;94424.56;10474964;28;1675;-56
2023/10/24 13:05:23;;;;;;;;;;;;;;;21.00;48.32;94430.91;10474142;28;1907;-56
2023/10/24 13:10:23;;;;;;;;;;;;;;;20.99;48.20;94424.88;10474809;28;1894;-55
2023/10/24 13:15:23;;;;;;;;;;;;;;;20.99;48.22;94434.63;10477668;28;1665;-54
2023/10/24 13:20:25;;;;;;;;;;;;;;;21.00;47.66;94415.09;10478906;28;2658;-55
2023/10/24 13:25:26;;;;;;;;;;;;;;;20.98;47.79;94420.69;10478019;28;1487;-55
2023/10/24 13:30:26;;;;;;;;;;;;;;;20.95;47.57;94413.41;10479221;28;1913;-55
2023/10/24 13:35:26;;;;;;;;;;;;;;;20.93;47.40;94407.69;10476379;28;1811;-57
2023/10/24 13:40:26;;;;;;;;;;;;;;;20.93;47.45;94418.22;10476282;28;4749;-57
2023/10/24 13:45:27;;;;;;;;;;;;;;;20.98;47.08;94430.44;10475738;28;1677;-54
2023/10/24 13:50:27;;;;;;;;;;;;;;;21.03;47.33;94436.38;10473529;28;1914;-56
2023/10/24 13:55:28;;;;;;;;;;;;;;;21.08;46.90;94457.31;10477480;28;1484;-55
2023/10/24 14:00:28;;;;;;;;;;;;;;;21.16;47.45;94449.72;10473566;28;1715;-57
2023/10/24 14:05:28;;;;;;;;;;;;;;;21.25;47.81;94437.31;10484215;28;2544;-58
2023/10/24 14:10:29;;;;;;;;;;;;;;;21.33;47.44;94429.44;10482785;28;1905;-57
2023/10/24 14:15:29;;;;;;;;;;;;;;;21.41;47.89;94409.44;10461086;28;1552;-56
2023/10/24 14:20:30;;;;;;;;;;;;;;;21.46;46.97;94438.28;10480073;28;1772;-55
2023/10/24 14:25:31;;;;;;;;;;;;;;;21.54;46.63;94453.31;10480591;28;2623;-57
2023/10/24 14:30:31;;;;;;;;;;;;;;;21.53;48.18;94464.97;10473384;28;2634;-57
2023/10/24 14:35:31;;;;;;;;;;;;;;;21.61;49.41;94472.09;10468645;28;2597;-58
2023/10/24 14:40:32;;;;;;;;;;;;;;;21.70;49.46;94475.53;10476528;28;4652;-58
2023/10/24 14:45:34;;;;;;;;;;;;;;;21.67;49.39;94462.94;10475214;28;2577;-58
2023/10/24 14:50:38;;;;;;;;;;;;;;;21.71;49.37;94484.97;10474731;28;2973;-57
2023/10/24 14:55:39;;;;;;;;;;;;;;;21.68;49.58;94482.94;10475264;28;2595;-58
2023/10/24 15:00:39;;;;;;;;;;;;;;;21.70;49.42;94486.06;10483879;28;2717;-58
2023/10/24 15:05:40;;;;;;;;;;;;;;;21.70;50.65;94488.72;10479590;28;2456;-57
2023/10/24 15:10:40;;;;;;;;;;;;;;;21.68;50.33;94493.50;10494131;28;1976;-55
2023/10/24 15:15:41;;;;;;;;;;;;;;;21.68;50.92;94475.03;10480442;28;2524;-56
2023/10/24 15:20:41;;;;;;;;;;;;;;;21.69;51.26;94485.28;10483684;28;2016;-57
2023/10/24 15:25:41;;;;;;;;;;;;;;;21.68;50.02;94488.22;10479402;28;1476;-57
2023/10/24 15:30:42;;;;;;;;;;;;;;;21.67;50.10;94487.47;10476740;28;2551;-57
2023/10/24 15:35:43;;;;;;;;;;;;;;;21.67;50.00;94481.41;10466025;28;2680;-56
2023/10/24 15:40:43;;;;;;;;;;;;;;;21.64;50.62;94487.28;10466570;28;7170;-57
2023/10/24 15:45:44;;;;;;;;;;;;;;;21.63;49.83;94485.75;10480162;28;5394;-56
2023/10/24 15:50:44;;;;;;;;;;;;;;;21.62;49.65;94494.75;10472702;28;5539;-56
2023/10/24 15:55:44;;;;;;;;;;;;;;;21.57;49.75;94500.97;10477818;28;2587;-56
2023/10/24 16:00:44;;;;;;;;;;;;;;;21.57;49.48;94497.53;10474602;28;5540;-57
2023/10/24 16:05:45;;;;;;;;;;;;;;;21.58;48.95;94499.88;10473804;28;2668;-57
2023/10/24 16:10:46;;;;;;;;;;;;;;;21.61;48.33;94509.03;10468140;28;2601;-57
2023/10/24 16:15:49;;;;;;;;;;;;;;;21.63;47.67;94506.84;10471006;28;3201;-56
2023/10/24 16:20:56;;;;;;;;;;;;;;;21.63;48.41;94518.19;10472081;28;2723;-57
2023/10/24 16:26:00;;;;;;;;;;;;;;;21.67;48.22;94515.69;10466367;28;2531;-58
2023/10/24 16:31:01;;;;;;;;;;;;;;;21.70;47.87;94523.75;10467892;28;2674;-58
2023/10/24 16:36:03;;;;;;;;;;;;;;;21.73;47.93;94531.06;10469020;28;2607;-58
2023/10/24 16:41:03;;;;;;;;;;;;;;;21.75;47.21;94536.03;10472605;28;2826;-57
2023/10/24 16:46:04;;;;;;;;;;;;;;;21.77;47.79;94539.13;10473403;28;2562;-57
2023/10/24 16:51:06;;;;;;;;;;;;;;;21.78;47.25;94551.25;10457898;28;5116;-58
2023/10/24 16:56:06;;;;;;;;;;;;;;;21.79;47.02;94547.50;10475083;28;2762;-57
2023/10/24 17:01:07;;;;;;;;;;;;;;;21.81;47.16;94545.34;10470491;28;2848;-57
2023/10/24 17:06:07;;;;;;;;;;;;;;;21.85;47.41;94556.84;10471024;28;2604;-57
2023/10/24 17:11:07;;;;;;;;;;;;;;;21.92;48.17;94551.91;10456139;28;2611;-58
2023/10/24 17:16:08;;;;;;;;;;;;;;;21.98;48.55;94548.00;10470583;28;2735;-57
2023/10/24 17:21:08;;;;;;;;;;;;;;;22.05;47.98;94548.31;10479024;28;2546;-56
2023/10/24 17:26:09;;;;;;;;;;;;;;;22.10;47.32;94548.16;10472768;28;2631;-59
2023/10/24 17:31:09;;;;;;;;;;;;;;;22.10;46.94;94548.16;10479949;28;2495;-57
2023/10/24 17:36:09;;;;;;;;;;;;;;;22.12;47.01;94539.94;10482545;28;2244;-58
2023/10/24 17:41:11;;;;;;;;;;;;;;;22.12;46.71;94542.56;10484900;28;1880;-57
2023/10/24 17:46:11;;;;;;;;;;;;;;;22.12;46.58;94532.00;10489427;28;1675;-52
2023/10/24 17:51:11;;;;;;;;;;;;;;;22.13;46.45;94529.06;10489231;28;5042;-58
2023/10/24 17:56:12;;;;;;;;;;;;;;;22.10;47.04;94519.13;10487031;28;2665;-56
2023/10/24 18:01:13;;;;;;;;;;;;;;;22.11;46.97;94525.97;10489114;28;1860;-57
2023/10/24 18:06:13;;;;;;;;;;;;;;;22.10;46.87;94527.03;10489113;28;1641;-57
2023/10/24 18:11:13;;;;;;;;;;;;;;;22.13;47.02;94525.66;10484874;28;1953;-58
2023/10/24 18:16:16;;;;;;;;;;;;;;;22.10;47.10;94529.69;10491211;28;1619;-57
2023/10/24 18:21:17;;;;;;;;;;;;;;;22.06;46.68;94535.91;10487352;28;1802;-56
2023/10/24 18:26:21;;;;;;;;;;;;;;;22.03;46.92;94537.28;10485568;28;1934;-58
2023/10/24 18:31:23;;;;;;;;;;;;;;;22.03;47.09;94537.28;10485998;28;2607;-57
2023/10/24 18:36:23;;;;;;;;;;;;;;;22.02;47.29;94545.53;10487407;28;1840;-58
2023/10/24 18:41:23;;;;;;;;;;;;;;;22.00;46.44;94548.47;10484734;28;2698;-58
2023/10/24 18:46:24;;;;;;;;;;;;;;;21.99;47.18;94556.72;10485671;28;1773;-58
2023/10/24 18:51:24;;;;;;;;;;;;;;;21.96;46.99;94542.28;10479410;28;5046;-56
2023/10/24 18:56:25;;;;;;;;;;;;;;;21.98;46.86;94549.88;10486424;28;1599;-60
2023/10/24 19:01:25;;;;;;;;;;;;;;;21.97;47.16;94548.34;10477298;28;1604;-56
2023/10/24 19:06:26;;;;;;;;;;;;;;;21.92;46.61;94557.16;10481752;28;1475;-56
2023/10/24 19:11:26;;;;;;;;;;;;;;;21.95;47.27;94553.16;10464660;28;2106;-57
2023/10/24 19:16:26;;;;;;;;;;;;;;;21.94;46.99;94549.72;10481778;28;1627;-56
2023/10/24 19:21:27;;;;;;;;;;;;;;;21.94;46.33;94548.94;10490019;28;1515;-56
2023/10/24 19:26:27;;;;;;;;;;;;;;;21.94;47.11;94552.38;10484879;28;1872;-55
2023/10/24 19:31:27;;;;;;;;;;;;;;;21.97;46.32;94559.63;10483162;28;1918;-56
2023/10/24 19:36:28;;;;;;;;;;;;;;;21.97;47.26;94551.72;10488335;28;1499;-55
2023/10/24 19:41:28;;;;;;;;;;;;;;;21.97;46.72;94557.00;10461570;28;2431;-54
2023/10/24 19:46:30;;;;;;;;;;;;;;;22.00;47.51;94555.63;10484572;28;1698;-55
2023/10/24 19:51:33;;;;;;;;;;;;;;;21.95;46.33;94561.06;10483339;28;5241;-55
2023/10/24 19:56:33;;;;;;;;;;;;;;;22.02;47.42;94567.41;10481084;28;1808;-57
2023/10/24 20:01:34;;;;;;;;;;;;;;;21.97;47.45;94559.63;10482302;28;1653;-55
2023/10/24 20:06:34;;;;;;;;;;;;;;;21.96;47.05;94566.03;10465903;28;1444;-57
2023/10/24 20:11:34;;;;;;;;;;;;;;;21.97;47.65;94567.56;10460528;28;1974;-56
2023/10/24 20:16:35;;;;;;;;;;;;;;;21.94;47.22;94565.56;10479061;28;1451;-57
2023/10/24 20:21:35;;;;;;;;;;;;;;;21.95;47.45;94568.97;10479836;28;1528;-56
2023/10/24 20:26:36;;;;;;;;;;;;;;;21.93;46.94;94576.44;10479423;28;2486;-56
2023/10/24 20:31:36;;;;;;;;;;;;;;;21.91;47.50;94576.72;10480792;28;1982;-54
2023/10/24 20:36:36;;;;;;;;;;;;;;;21.91;47.66;94568.78;10483226;28;1451;-56
2023/10/24 20:41:36;;;;;;;;;;;;;;;21.90;47.33;94571.75;10455263;28;2728;-58
2023/10/24 20:46:37;;;;;;;;;;;;;;;21.92;47.57;94575.63;10473014;28;2678;-58
2023/10/24 20:51:37;;;;;;;;;;;;;;;21.85;46.99;94573.47;10458107;28;2764;-58
2023/10/24 20:56:38;;;;;;;;;;;;;;;21.79;46.62;94574.66;10472301;28;2672;-58
2023/10/24 21:01:38;;;;;;;;;;;;;;;21.71;46.67;94578.06;10473378;28;2567;-58
2023/10/24 21:06:38;;;;;;;;;;;;;;;21.66;46.43;94587.97;10470381;28;2673;-58
2023/10/24 21:11:38;;;;;;;;;;;;;;;21.58;46.78;94594.00;10460979;28;2877;-58
2023/10/24 21:16:39;;;;;;;;;;;;;;;21.52;47.23;94588.09;10466490;28;2574;-58
2023/10/24 21:21:40;;;;;;;;;;;;;;;21.49;46.80;94591.38;10465217;28;2932;-58
2023/10/24 21:26:40;;;;;;;;;;;;;;;21.45;46.45;94584.38;10470188;28;2854;-58
2023/10/24 21:31:44;;;;;;;;;;;;;;;21.42;46.59;94585.75;10473440;28;2531;-58
2023/10/24 21:36:44;;;;;;;;;;;;;;;21.39;46.46;94586.34;10466257;28;2653;-58
2023/10/24 21:41:44;;;;;;;;;;;;;;;21.35;46.83;94580.16;10465034;28;2676;-58
2023/10/24 21:46:44;;;;;;;;;;;;;;;21.33;46.60;94584.94;10465396;28;2714;-57
2023/10/24 21:51:45;;;;;;;;;;;;;;;21.32;46.87;94585.25;10468071;28;5340;-58
2023/10/24 21:56:45;;;;;;;;;;;;;;;21.29;46.75;94588.53;10471608;28;2569;-58
2023/10/24 22:01:49;;;;;;;;;;;;;;;21.28;46.46;94595.66;10469379;28;2568;-58
2023/10/24 22:06:49;;;;;;;;;;;;;;;21.25;46.79;94593.59;10447932;28;2790;-58
2023/10/24 22:11:49;;;;;;;;;;;;;;;21.24;46.81;94599.97;10469356;28;2598;-57
2023/10/24 22:16:50;;;;;;;;;;;;;;;21.23;46.80;94603.69;10466576;28;2794;-58
2023/10/24 22:21:50;;;;;;;;;;;;;;;21.21;46.87;94597.94;10472463;28;2546;-58
2023/10/24 22:26:50;;;;;;;;;;;;;;;21.20;46.75;94604.31;10476650;28;2646;-58
2023/10/24 22:31:50;;;;;;;;;;;;;;;21.19;46.96;94601.94;10472764;28;2653;-58
2023/10/24 22:36:51;;;;;;;;;;;;;;;21.17;46.83;94601.47;10476198;28;2595;-58
2023/10/24 22:41:51;;;;;;;;;;;;;;;21.15;47.07;94593.09;10461647;28;2826;-59
2023/10/24 22:46:51;;;;;;;;;;;;;;;21.13;46.75;94593.41;10473599;28;2963;-58
2023/10/24 22:51:52;;;;;;;;;;;;;;;21.12;46.85;94596.34;10473663;28;5455;-58
2023/10/24 22:56:52;;;;;;;;;;;;;;;21.11;46.92;94605.34;10474774;28;2665;-56
2023/10/24 23:01:55;;;;;;;;;;;;;;;21.08;46.89;94595.41;10470485;28;2833;-58
2023/10/24 23:06:56;;;;;;;;;;;;;;;21.07;46.86;94605.16;10476403;28;2527;-58
2023/10/24 23:11:56;;;;;;;;;;;;;;;21.04;46.92;94598.66;10479833;28;2639;-58
2023/10/24 23:16:56;;;;;;;;;;;;;;;21.03;46.72;94597.09;10475770;28;2578;-58
2023/10/24 23:21:57;;;;;;;;;;;;;;;21.01;46.78;94601.88;10462052;28;2564;-59
2023/10/24 23:26:57;;;;;;;;;;;;;;;21.00;46.92;94605.56;10481142;28;2687;-59
2023/10/24 23:31:57;;;;;;;;;;;;;;;20.99;47.02;94600.59;10482003;28;2626;-58
2023/10/24 23:36:57;;;;;;;;;;;;;;;20.97;47.20;94614.09;10461404;28;2753;-58
2023/10/24 23:42:00;;;;;;;;;;;;;;;20.95;46.64;94616.25;10480227;28;2619;-58
2023/10/24 23:47:00;;;;;;;;;;;;;;;20.94;47.09;94619.16;10474329;28;2866;-58
2023/10/24 23:52:00;;;;;;;;;;;;;;;20.92;46.51;94616.06;10462844;28;2636;-58
2023/10/24 23:57:01;;;;;;;;;;;;;;;20.91;46.72;94620.56;10476760;28;2598;-59
